Time;durP1;ratioP1;P1;durP2;ratioP2;P2;SDS_P1;SDS_P2;PMS_P1;PMS_P2;Temp;Humidity;BMP_temperature;BMP_pressure;BME280_temperature;BME280_humidity;BME280_pressure;Samples;Min_cycle;Max_cycle;Signal;HPM_P1;HPM_P2
2023/05/06 00:00:38;;;;;;;6.63;4.43;;;11.30;99.90;;;;;;4967174;28;20038;-73
2023/05/06 00:03:04;;;;;;;7.88;5.70;;;11.30;99.90;;;;;;4967050;28;20046;-73
2023/05/06 00:05:29;;;;;;;6.40;5.70;;;11.30;99.90;;;;;;4966447;28;20038;-73
2023/05/06 00:07:55;;;;;;;10.95;5.60;;;11.40;99.90;;;;;;4968571;28;20101;-72
2023/05/06 00:10:21;;;;;;;8.60;5.93;;;11.40;99.90;;;;;;4966661;28;20535;-73
2023/05/06 00:12:46;;;;;;;6.38;5.45;;;11.40;99.90;;;;;;4951677;28;20058;-73
2023/05/06 00:15:12;;;;;;;9.30;7.10;;;11.40;99.90;;;;;;4966951;28;20093;-73
2023/05/06 00:17:38;;;;;;;5.68;4.47;;;11.40;99.90;;;;;;4968985;28;20086;-73
2023/05/06 00:20:05;;;;;;;9.73;5.55;;;11.40;99.90;;;;;;4967753;28;20052;-73
2023/05/06 00:22:30;;;;;;;6.22;5.13;;;11.40;99.90;;;;;;4966486;28;20051;-73
2023/05/06 00:24:56;;;;;;;13.77;5.75;;;11.40;99.90;;;;;;4967401;28;20046;-73
2023/05/06 00:27:22;;;;;;;7.85;5.82;;;11.40;99.90;;;;;;4967875;28;20101;-73
2023/05/06 00:29:47;;;;;;;10.50;5.13;;;11.40;99.90;;;;;;4967979;28;20512;-73
2023/05/06 00:32:14;;;;;;;7.15;5.75;;;11.30;99.90;;;;;;4965605;28;20061;-73
2023/05/06 00:34:39;;;;;;;8.45;5.82;;;11.40;99.90;;;;;;4967741;28;20047;-73
2023/05/06 00:37:05;;;;;;;9.32;6.30;;;11.40;99.90;;;;;;4953857;28;20101;-73
2023/05/06 00:39:32;;;;;;;6.55;5.88;;;11.40;99.90;;;;;;4967236;28;20051;-73
2023/05/06 00:42:01;;;;;;;6.28;5.22;;;11.30;99.90;;;;;;4967035;28;20519;-73
2023/05/06 00:44:28;;;;;;;8.73;6.50;;;11.40;99.90;;;;;;4950228;28;20074;-73
2023/05/06 00:46:55;;;;;;;8.32;6.10;;;11.40;99.90;;;;;;4967745;28;20054;-72
2023/05/06 00:49:22;;;;;;;15.77;6.05;;;11.40;99.90;;;;;;4982484;28;20059;-73
2023/05/06 00:51:49;;;;;;;14.95;6.65;;;11.50;99.90;;;;;;4967380;28;20050;-72
2023/05/06 00:54:15;;;;;;;9.55;6.20;;;11.50;99.90;;;;;;4950689;28;20493;-73
2023/05/06 00:56:41;;;;;;;10.38;5.25;;;11.50;99.90;;;;;;4967098;28;20169;-72
2023/05/06 00:59:07;;;;;;;14.80;6.05;;;11.50;99.90;;;;;;4967231;28;20121;-73
2023/05/06 01:01:32;;;;;;;14.70;4.65;;;11.40;99.90;;;;;;4966651;28;20097;-73
2023/05/06 01:04:06;;;;;;;5.55;4.00;;;11.40;99.90;;;;;;4967586;28;20053;-73
2023/05/06 01:07:01;;;;;;;97.00;5.03;;;11.30;99.90;;;;;;4965962;28;20062;-73
2023/05/06 01:09:46;;;;;;;9.05;3.35;;;11.20;99.90;;;;;;4951574;28;20121;-73
2023/05/06 01:12:21;;;;;;;6.18;3.50;;;11.10;99.90;;;;;;4961617;28;20090;-73
2023/05/06 01:15:08;;;;;;;7.13;3.40;;;11.00;99.90;;;;;;4966006;28;20401;-73
2023/05/06 01:17:38;;;;;;;3.97;3.50;;;10.90;99.90;;;;;;4966994;28;20051;-73
2023/05/06 01:20:06;;;;;;;7.40;3.60;;;10.80;99.90;;;;;;4965939;28;20552;-73
2023/05/06 01:22:36;;;;;;;4.70;3.72;;;10.80;99.90;;;;;;4967251;28;20117;-73
2023/05/06 01:25:02;;;;;;;5.47;4.18;;;10.80;99.90;;;;;;4966560;28;20054;-73
2023/05/06 01:27:28;;;;;;;4.25;3.95;;;10.70;99.90;;;;;;4966096;28;20043;-73
2023/05/06 01:29:54;;;;;;;3.70;3.40;;;10.70;99.90;;;;;;4966743;28;20043;-73
2023/05/06 01:32:55;;;;;;;5.00;3.53;;;10.70;99.90;;;;;;4965755;28;20117;-73
2023/05/06 01:36:03;;;;;;;9.32;4.00;;;10.70;99.90;;;;;;4948291;28;20047;-73
2023/05/06 01:38:38;;;;;;;6.00;4.03;;;10.70;99.90;;;;;;4960437;28;20130;-73
2023/05/06 01:41:14;;;;;;;12.73;3.75;;;10.80;99.90;;;;;;4965773;28;20133;-73
2023/05/06 01:43:43;;;;;;;5.93;3.97;;;10.70;99.90;;;;;;4950714;28;20596;-73
2023/05/06 01:46:18;;;;;;;5.40;3.70;;;10.80;99.90;;;;;;4965955;28;20071;-73
2023/05/06 01:48:51;;;;;;;4.80;4.32;;;10.80;99.90;;;;;;4953415;28;20070;-73
2023/05/06 01:51:17;;;;;;;5.32;3.97;;;10.90;99.90;;;;;;4950907;28;20057;-73
2023/05/06 01:53:43;;;;;;;5.43;3.53;;;10.80;99.90;;;;;;4966681;28;20046;-73
2023/05/06 01:56:09;;;;;;;7.07;4.32;;;10.80;99.90;;;;;;4954978;28;20058;-73
2023/05/06 01:58:34;;;;;;;4.20;3.90;;;10.80;99.90;;;;;;4952957;28;20047;-73
2023/05/06 02:01:00;;;;;;;12.32;4.30;;;10.80;99.90;;;;;;4954767;28;20143;-73
2023/05/06 02:03:26;;;;;;;6.40;4.30;;;10.80;99.90;;;;;;4953363;28;20484;-73
2023/05/06 02:05:52;;;;;;;4.50;4.15;;;10.80;99.90;;;;;;4953670;28;20042;-74
2023/05/06 02:08:17;;;;;;;4.63;4.18;;;10.70;99.90;;;;;;4970292;28;20043;-73
2023/05/06 02:10:44;;;;;;;7.38;4.30;;;10.70;99.90;;;;;;4969354;28;20058;-73
2023/05/06 02:13:11;;;;;;;6.63;4.32;;;10.80;99.90;;;;;;4970361;28;20047;-73
2023/05/06 02:15:36;;;;;;;76.43;6.05;;;10.80;99.90;;;;;;4968971;28;20058;-73
2023/05/06 02:18:02;;;;;;;19.92;3.70;;;10.80;99.90;;;;;;4970403;28;20058;-74
2023/05/06 02:20:28;;;;;;;4.43;3.70;;;10.80;99.90;;;;;;4968884;28;20485;-73
2023/05/06 02:22:53;;;;;;;4.00;3.70;;;10.70;99.90;;;;;;4954070;28;20473;-73
2023/05/06 02:25:20;;;;;;;4.43;3.72;;;10.70;99.90;;;;;;4970934;28;20509;-73
2023/05/06 02:27:46;;;;;;;8.43;4.13;;;10.70;99.90;;;;;;4969166;28;20057;-73
2023/05/06 02:30:12;;;;;;;6.68;4.20;;;10.70;99.90;;;;;;4969947;28;20133;-73
2023/05/06 02:32:37;;;;;;;5.90;4.38;;;10.70;99.90;;;;;;4968119;28;20105;-73
2023/05/06 02:35:04;;;;;;;4.63;4.13;;;10.70;99.90;;;;;;4969869;28;20050;-73
2023/05/06 02:37:30;;;;;;;8.32;4.47;;;10.70;99.90;;;;;;4952564;28;20481;-73
2023/05/06 02:39:55;;;;;;;7.05;4.57;;;10.70;99.90;;;;;;4953543;28;20046;-73
2023/05/06 02:42:21;;;;;;;8.82;4.43;;;10.70;99.90;;;;;;4968810;28;20201;-73
2023/05/06 02:44:47;;;;;;;11.18;4.20;;;10.60;99.90;;;;;;4969712;28;20477;-73
2023/05/06 02:47:12;;;;;;;6.70;4.75;;;10.60;99.90;;;;;;4971162;28;20047;-73
2023/05/06 02:49:38;;;;;;;15.60;4.78;;;10.50;99.90;;;;;;4955590;28;20587;-73
2023/05/06 02:52:04;;;;;;;111.30;6.28;;;10.50;99.90;;;;;;4956860;28;20502;-73
2023/05/06 02:54:30;;;;;;;142.23;6.85;;;10.50;99.90;;;;;;4955646;28;20453;-73
2023/05/06 02:56:55;;;;;;;90.43;5.97;;;10.50;99.90;;;;;;4956560;28;20054;-73
2023/05/06 02:59:21;;;;;;;72.85;7.00;;;10.60;99.90;;;;;;4971182;28;20054;-74
2023/05/06 03:01:47;;;;;;;137.63;7.28;;;10.60;99.90;;;;;;4972596;28;20053;-73
2023/05/06 03:04:13;;;;;;;98.97;8.02;;;10.60;99.90;;;;;;4970929;28;20122;-73
2023/05/06 03:06:39;;;;;;;54.70;6.07;;;10.70;99.90;;;;;;4972022;28;20054;-73
2023/05/06 03:09:05;;;;;;;106.72;7.07;;;10.60;99.90;;;;;;4972122;28;20796;-73
2023/05/06 03:11:31;;;;;;;174.68;7.95;;;10.70;99.90;;;;;;4970872;28;20132;-73
2023/05/06 03:13:57;;;;;;;96.68;6.00;;;10.70;99.90;;;;;;4972192;28;20130;-73
2023/05/06 03:16:23;;;;;;;112.13;5.65;;;10.70;99.90;;;;;;4971153;28;20117;-74
2023/05/06 03:18:49;;;;;;;123.80;5.93;;;10.60;99.90;;;;;;4972895;28;20065;-74
2023/05/06 03:21:15;;;;;;;185.35;5.78;;;10.60;99.90;;;;;;4966218;28;20054;-74
2023/05/06 03:23:41;;;;;;;149.52;5.40;;;10.50;99.90;;;;;;4982306;28;20424;-73
2023/05/06 03:26:06;;;;;;;162.88;5.93;;;10.50;99.90;;;;;;4958905;28;20049;-73
2023/05/06 03:28:32;;;;;;;120.32;5.18;;;10.50;99.90;;;;;;4971427;28;20508;-73
2023/05/06 03:30:58;;;;;;;85.72;5.22;;;10.50;99.90;;;;;;4971904;28;20039;-73
2023/05/06 03:33:23;;;;;;;116.90;6.07;;;10.50;99.90;;;;;;4970982;28;20049;-73
2023/05/06 03:35:49;;;;;;;125.90;7.18;;;10.50;99.90;;;;;;4955840;28;20050;-72
2023/05/06 03:38:15;;;;;;;122.80;5.32;;;10.50;99.90;;;;;;4969988;28;20046;-74
2023/05/06 03:40:41;;;;;;;102.03;5.30;;;10.50;99.90;;;;;;4972600;28;20050;-72
2023/05/06 03:43:07;;;;;;;72.20;4.25;;;10.50;99.90;;;;;;4970385;28;20100;-73
2023/05/06 03:45:33;;;;;;;46.50;4.20;;;10.40;99.90;;;;;;4955999;28;20058;-73
2023/05/06 03:47:59;;;;;;;61.28;4.20;;;10.40;99.90;;;;;;4970234;28;20092;-73
2023/05/06 03:50:25;;;;;;;50.92;4.25;;;10.30;99.90;;;;;;4980475;28;20477;-73
2023/05/06 03:52:50;;;;;;;35.03;4.57;;;10.30;99.90;;;;;;4971488;28;20106;-73
2023/05/06 03:55:16;;;;;;;27.35;4.18;;;10.30;99.90;;;;;;4952169;28;20850;-72
2023/05/06 03:57:42;;;;;;;20.23;3.83;;;10.30;99.90;;;;;;4977716;28;20552;-72
2023/05/06 04:00:09;;;;;;;23.85;3.78;;;10.20;99.90;;;;;;4971981;28;20046;-73
2023/05/06 04:02:35;;;;;;;140.20;5.18;;;10.20;99.90;;;;;;4980193;28;20491;-73
2023/05/06 04:05:02;;;;;;;99.40;4.57;;;10.10;99.90;;;;;;4954035;28;20066;-72
2023/05/06 04:07:28;;;;;;;97.65;4.25;;;10.10;99.90;;;;;;4981020;28;20089;-72
2023/05/06 04:09:54;;;;;;;201.77;4.50;;;10.20;99.90;;;;;;4975513;28;20084;-73
2023/05/06 04:12:20;;;;;;;118.53;3.30;;;10.20;99.90;;;;;;4969443;28;20124;-72
2023/05/06 04:14:47;;;;;;;151.88;3.72;;;10.20;99.90;;;;;;4971482;28;20049;-72
2023/05/06 04:17:13;;;;;;;189.32;3.75;;;10.20;99.90;;;;;;4986324;28;20054;-73
2023/05/06 04:19:38;;;;;;;100.80;2.92;;;10.20;99.90;;;;;;4971714;28;20057;-73
2023/05/06 04:22:04;;;;;;;98.38;2.90;;;10.20;99.90;;;;;;4970169;28;20077;-73
2023/05/06 04:24:30;;;;;;;98.38;3.17;;;10.20;99.90;;;;;;4954971;28;20073;-72
2023/05/06 04:26:56;;;;;;;111.75;3.55;;;10.20;99.90;;;;;;4988726;28;20100;-72
2023/05/06 04:29:22;;;;;;;116.30;3.20;;;10.30;99.90;;;;;;4969331;28;20058;-72
2023/05/06 04:31:48;;;;;;;113.03;3.30;;;10.30;99.90;;;;;;4969768;28;20046;-73
2023/05/06 04:34:15;;;;;;;175.10;3.42;;;10.20;99.90;;;;;;4969271;28;20058;-73
2023/05/06 04:36:41;;;;;;;255.65;4.45;;;10.30;99.90;;;;;;4955568;28;20085;-74
2023/05/06 04:39:09;;;;;;;232.40;4.55;;;10.20;99.90;;;;;;4969106;28;20046;-73
2023/05/06 04:41:35;;;;;;;244.82;4.82;;;10.20;99.90;;;;;;4970287;28;20129;-73
2023/05/06 04:44:02;;;;;;;191.35;4.75;;;10.20;99.90;;;;;;4970623;28;20054;-72
2023/05/06 04:46:28;;;;;;;197.38;4.82;;;10.30;99.90;;;;;;4969470;28;20580;-72
2023/05/06 04:48:55;;;;;;;187.15;4.55;;;10.30;99.90;;;;;;4970836;28;20058;-73
2023/05/06 04:51:21;;;;;;;103.95;3.72;;;10.40;99.90;;;;;;4952829;28;20038;-73
2023/05/06 04:53:47;;;;;;;134.93;5.15;;;10.50;99.90;;;;;;4971467;28;20125;-73
2023/05/06 04:56:13;;;;;;;64.57;4.90;;;10.50;99.90;;;;;;4968758;28;20492;-72
2023/05/06 04:58:38;;;;;;;92.70;5.57;;;10.50;99.90;;;;;;4970816;28;20475;-73
2023/05/06 05:01:07;;;;;;;117.30;7.18;;;10.60;99.90;;;;;;4969560;28;20057;-72
2023/05/06 05:03:32;;;;;;;117.90;7.80;;;10.60;99.90;;;;;;4953735;28;20053;-73
2023/05/06 05:05:58;;;;;;;67.57;6.93;;;10.60;99.90;;;;;;4970714;28;20057;-73
2023/05/06 05:08:24;;;;;;;130.13;7.05;;;10.60;99.90;;;;;;4968423;28;20535;-73
2023/05/06 05:10:50;;;;;;;84.38;5.22;;;10.60;99.90;;;;;;4988010;28;20397;-73
2023/05/06 05:13:15;;;;;;;138.93;5.85;;;10.60;99.90;;;;;;4952327;28;20038;-73
2023/05/06 05:15:41;;;;;;;174.95;7.03;;;10.50;99.90;;;;;;4970209;28;20074;-73
2023/05/06 05:18:07;;;;;;;86.65;5.50;;;10.50;99.90;;;;;;4968509;28;20446;-73
2023/05/06 05:20:33;;;;;;;90.97;5.65;;;10.40;99.90;;;;;;4970173;28;20666;-72
2023/05/06 05:22:59;;;;;;;46.88;4.57;;;10.50;99.90;;;;;;4920110;28;20525;-73
2023/05/06 05:25:25;;;;;;;77.30;5.70;;;10.40;99.90;;;;;;4960025;28;20065;-73
2023/05/06 05:27:51;;;;;;;81.78;4.85;;;10.50;99.90;;;;;;4970247;28;20058;-73
2023/05/06 05:30:17;;;;;;;52.17;4.30;;;10.50;99.90;;;;;;4968488;28;20050;-73
2023/05/06 05:32:43;;;;;;;98.18;4.85;;;10.40;99.90;;;;;;4970305;28;20050;-73
2023/05/06 05:35:11;;;;;;;48.72;4.40;;;10.40;99.90;;;;;;4952391;28;20039;-73
2023/05/06 05:37:37;;;;;;;87.00;4.90;;;10.50;99.90;;;;;;4970048;28;20122;-72
2023/05/06 05:40:03;;;;;;;49.00;4.50;;;10.50;99.90;;;;;;4969131;28;20042;-72
2023/05/06 05:42:32;;;;;;;32.88;4.80;;;10.50;99.90;;;;;;4969571;28;20050;-72
2023/05/06 05:45:01;;;;;;;44.08;4.57;;;10.60;99.90;;;;;;4953504;28;20070;-72
2023/05/06 05:47:27;;;;;;;27.02;3.80;;;10.60;99.90;;;;;;4967661;28;20575;-72
2023/05/06 05:49:53;;;;;;;50.55;4.45;;;10.70;99.90;;;;;;4986529;28;20050;-73
2023/05/06 05:52:20;;;;;;;52.40;4.35;;;10.70;99.90;;;;;;4968622;28;20100;-73
2023/05/06 05:54:46;;;;;;;93.30;4.90;;;10.80;99.90;;;;;;4970170;28;20065;-74
2023/05/06 05:57:11;;;;;;;71.00;4.07;;;10.90;99.90;;;;;;4969278;28;20058;-72
2023/05/06 05:59:38;;;;;;;24.17;4.22;;;10.90;99.90;;;;;;4970040;28;20522;-73
2023/05/06 06:02:04;;;;;;;54.38;3.58;;;10.90;99.90;;;;;;4985925;28;20092;-73
2023/05/06 06:04:30;;;;;;;52.45;4.05;;;10.90;99.90;;;;;;4952678;28;20253;-72
2023/05/06 06:07:00;;;;;;;25.55;4.53;;;10.90;99.90;;;;;;4969656;28;20584;-73
2023/05/06 06:09:26;;;;;;;;;;;11.00;99.90;;;;;;4955286;28;20073;-73
2023/05/06 06:11:52;;;;;;;39.95;4.57;;;11.00;99.90;;;;;;4975809;28;20295;-73
2023/05/06 06:14:17;;;;;;;45.80;4.65;;;11.00;99.90;;;;;;4966532;28;20048;-73
2023/05/06 06:16:43;;;;;;;36.53;5.18;;;11.10;99.90;;;;;;4967463;28;20043;-72
2023/05/06 06:19:09;;;;;;;34.47;5.28;;;11.20;99.90;;;;;;4967246;28;20551;-72
2023/05/06 06:21:35;;;;;;;54.63;6.28;;;11.20;99.90;;;;;;4955773;28;20050;-72
2023/05/06 06:24:01;;;;;;;43.47;5.82;;;11.30;99.90;;;;;;4987402;28;20419;-72
2023/05/06 06:26:27;;;;;;;49.38;6.78;;;11.30;99.90;;;;;;4967411;28;20035;-72
2023/05/06 06:28:52;;;;;;;60.30;6.30;;;11.40;99.90;;;;;;4987369;28;20141;-72
2023/05/06 06:31:18;;;;;;;17.45;6.25;;;11.40;99.90;;;;;;4968070;28;20461;-72
2023/05/06 06:33:44;;;;;;;22.05;6.32;;;11.40;99.90;;;;;;4969912;28;20792;-72
2023/05/06 06:36:10;;;;;;;21.35;5.63;;;11.50;99.90;;;;;;4986108;28;20125;-72
2023/05/06 06:38:36;;;;;;;12.15;7.00;;;11.50;99.90;;;;;;4968725;28;20042;-72
2023/05/06 06:41:01;;;;;;;21.15;6.93;;;11.40;99.90;;;;;;4956805;28;20353;-72
2023/05/06 06:43:27;;;;;;;21.52;6.95;;;11.40;99.90;;;;;;4971540;28;20057;-73
2023/05/06 06:45:53;;;;;;;25.52;6.55;;;11.40;99.90;;;;;;4957904;28;20131;-72
2023/05/06 06:48:19;;;;;;;7.47;6.68;;;11.50;99.90;;;;;;4967742;28;20069;-72
2023/05/06 06:50:45;;;;;;;21.73;7.32;;;11.50;99.90;;;;;;4969973;28;20101;-72
2023/05/06 06:53:11;;;;;;;9.65;7.38;;;11.50;99.90;;;;;;4968104;28;20055;-72
2023/05/06 06:55:36;;;;;;;11.63;7.70;;;11.60;99.90;;;;;;4953298;28;20050;-72
2023/05/06 06:58:02;;;;;;;10.63;7.63;;;11.60;99.90;;;;;;4968766;28;20066;-72
2023/05/06 07:00:30;;;;;;;9.98;8.00;;;11.70;99.90;;;;;;4968435;28;20054;-72
2023/05/06 07:02:55;;;;;;;11.48;7.75;;;11.80;99.90;;;;;;4969746;28;20047;-72
2023/05/06 07:05:21;;;;;;;9.40;7.97;;;11.80;99.90;;;;;;4959872;28;20061;-72
2023/05/06 07:07:47;;;;;;;10.52;8.30;;;11.80;99.90;;;;;;4970294;28;20057;-72
2023/05/06 07:10:13;;;;;;;10.55;8.05;;;11.90;99.90;;;;;;4968797;28;20405;-72
2023/05/06 07:12:38;;;;;;;10.85;7.72;;;11.90;99.90;;;;;;4961736;28;20043;-72
2023/05/06 07:15:05;;;;;;;14.15;8.77;;;12.00;99.90;;;;;;4972497;28;20055;-72
2023/05/06 07:17:32;;;;;;;13.73;8.57;;;12.00;99.90;;;;;;4953206;28;20034;-73
2023/05/06 07:19:59;;;;;;;11.27;8.25;;;12.10;99.90;;;;;;4955822;28;20078;-72
2023/05/06 07:22:26;;;;;;;11.85;8.38;;;12.10;99.90;;;;;;4967240;28;20055;-72
2023/05/06 07:24:52;;;;;;;11.00;9.10;;;12.10;99.90;;;;;;4961292;28;20056;-73
2023/05/06 07:27:18;;;;;;;12.73;8.55;;;12.10;99.90;;;;;;4970837;28;20555;-73
2023/05/06 07:29:44;;;;;;;13.88;8.55;;;12.10;99.90;;;;;;4974836;28;20046;-73
2023/05/06 07:32:10;;;;;;;13.38;9.00;;;12.20;99.90;;;;;;4955288;28;20110;-73
2023/05/06 07:34:35;;;;;;;10.07;8.10;;;12.30;99.90;;;;;;4973561;28;20054;-73
2023/05/06 07:37:02;;;;;;;14.23;8.82;;;12.40;99.90;;;;;;4969025;28;20050;-73
2023/05/06 07:39:28;;;;;;;11.93;9.15;;;12.50;99.90;;;;;;4968042;28;20050;-74
2023/05/06 07:41:54;;;;;;;17.38;9.93;;;12.70;99.90;;;;;;4972742;28;20053;-73
2023/05/06 07:44:20;;;;;;;20.55;10.73;;;13.00;99.90;;;;;;4951614;28;20089;-73
2023/05/06 07:46:46;;;;;;;21.05;11.65;;;13.40;99.90;;;;;;4934124;29;20090;-73
2023/05/06 07:49:12;;;;;;;21.13;11.55;;;13.50;99.90;;;;;;4942959;28;20496;-73
2023/05/06 07:51:37;;;;;;;16.63;10.90;;;13.50;99.90;;;;;;4970468;28;20082;-73
2023/05/06 07:54:03;;;;;;;20.35;11.13;;;13.30;99.90;;;;;;4968995;28;20047;-73
2023/05/06 07:56:29;;;;;;;20.30;12.40;;;13.20;99.90;;;;;;4968927;28;20093;-73
2023/05/06 07:58:55;;;;;;;15.55;10.65;;;13.20;99.90;;;;;;4966759;28;20047;-73
2023/05/06 08:01:21;;;;;;;17.23;11.45;;;13.20;99.90;;;;;;4946329;28;20046;-74
2023/05/06 08:03:47;;;;;;;21.00;11.05;;;13.20;99.90;;;;;;4970155;28;20055;-73
2023/05/06 08:06:12;;;;;;;20.23;11.55;;;13.20;99.90;;;;;;4968457;28;20042;-74
2023/05/06 08:08:38;;;;;;;15.57;9.85;;;13.30;99.90;;;;;;4970329;28;20514;-73
2023/05/06 08:11:04;;;;;;;15.25;10.35;;;13.20;99.90;;;;;;4949687;28;20061;-74
2023/05/06 08:13:32;;;;;;;14.77;9.60;;;13.20;99.90;;;;;;4952600;28;20054;-74
2023/05/06 08:15:58;;;;;;;15.85;10.82;;;13.30;99.90;;;;;;4968634;28;20061;-74
2023/05/06 08:18:23;;;;;;;13.77;10.30;;;13.20;99.90;;;;;;4967519;28;20039;-74
2023/05/06 08:20:50;;;;;;;16.83;10.90;;;13.20;99.90;;;;;;4967521;28;20086;-74
2023/05/06 08:23:16;;;;;;;14.90;10.20;;;13.10;99.90;;;;;;4973351;28;20050;-74
2023/05/06 08:25:42;;;;;;;16.15;10.18;;;13.10;99.90;;;;;;4968880;28;20494;-74
2023/05/06 08:28:08;;;;;;;15.43;9.90;;;13.10;99.90;;;;;;4965611;28;20105;-74
2023/05/06 08:30:33;;;;;;;16.10;11.23;;;13.10;99.90;;;;;;4967996;28;20056;-75
2023/05/06 08:32:59;;;;;;;13.35;9.85;;;13.10;99.90;;;;;;4970464;28;20114;-74
2023/05/06 08:35:25;;;;;;;15.60;10.13;;;13.20;99.90;;;;;;4980089;28;20092;-74
2023/05/06 08:37:51;;;;;;;14.68;10.63;;;13.30;99.90;;;;;;4967126;28;20039;-74
2023/05/06 08:40:19;;;;;;;15.85;10.02;;;13.30;99.90;;;;;;4931364;29;20094;-74
2023/05/06 08:42:46;;;;;;;18.75;11.60;;;13.30;99.90;;;;;;4967224;28;20054;-75
2023/05/06 08:45:14;;;;;;;13.07;9.85;;;13.30;99.90;;;;;;4954061;28;20073;-74
2023/05/06 08:47:40;;;;;;;13.10;10.13;;;13.40;99.90;;;;;;4977713;28;20712;-75
2023/05/06 08:50:08;;;;;;;14.82;10.48;;;13.60;99.90;;;;;;4973131;28;20050;-75
2023/05/06 08:52:35;;;;;;;15.98;9.90;;;13.60;99.90;;;;;;4955113;28;20089;-74
2023/05/06 08:55:03;;;;;;;18.42;10.50;;;13.70;99.90;;;;;;4974695;28;20129;-75
2023/05/06 08:57:30;;;;;;;20.10;11.68;;;13.90;99.90;;;;;;4979780;28;20085;-74
2023/05/06 08:59:56;;;;;;;15.30;10.80;;;14.00;99.90;;;;;;4977866;28;20042;-74
2023/05/06 09:02:22;;;;;;;13.45;10.23;;;14.00;99.90;;;;;;4968743;28;20046;-74
2023/05/06 09:04:51;;;;;;;15.63;10.70;;;14.10;99.90;;;;;;4972224;28;20156;-74
2023/05/06 09:07:17;;;;;;;17.17;11.20;;;14.10;99.90;;;;;;4973045;28;20043;-74
2023/05/06 09:09:43;;;;;;;16.83;10.75;;;14.10;99.90;;;;;;4972274;28;20046;-74
2023/05/06 09:12:12;;;;;;;16.27;9.57;;;14.20;99.90;;;;;;4967063;28;20052;-73
2023/05/06 09:14:38;;;;;;;;;;;14.20;99.90;;;;;;4969076;28;20061;-74
2023/05/06 09:17:04;;;;;;;13.68;10.00;;;14.20;99.90;;;;;;4954288;28;19922;-73
2023/05/06 09:19:30;;;;;;;12.95;9.95;;;14.40;99.90;;;;;;4952760;28;20046;-74
2023/05/06 09:21:56;;;;;;;15.45;9.75;;;14.50;99.90;;;;;;4970457;28;20089;-74
2023/05/06 09:24:23;;;;;;;17.50;11.25;;;14.80;99.90;;;;;;4968373;28;20050;-74
2023/05/06 09:26:54;;;;;;;17.77;10.30;;;15.00;99.90;;;;;;4970909;28;20631;-72
2023/05/06 09:29:19;;;;;;;16.08;10.23;;;15.40;99.90;;;;;;4953386;28;20046;-73
2023/05/06 09:31:46;;;;;;;19.73;10.98;;;15.70;99.90;;;;;;4968783;28;20540;-73
2023/05/06 09:34:13;;;;;;;21.98;11.25;;;16.00;99.90;;;;;;4969068;28;20049;-73
2023/05/06 09:36:39;;;;;;;21.77;12.88;;;16.20;99.90;;;;;;4966541;28;20054;-74
2023/05/06 09:39:05;;;;;;;18.27;10.93;;;16.40;99.90;;;;;;4953741;28;20058;-74
2023/05/06 09:41:32;;;;;;;15.90;9.85;;;16.60;99.90;;;;;;4968513;28;20042;-74
2023/05/06 09:43:58;;;;;;;13.98;8.85;;;16.70;99.90;;;;;;4969799;28;20416;-74
2023/05/06 09:46:28;;;;;;;11.88;7.97;;;16.80;99.90;;;;;;4973621;28;20042;-74
2023/05/06 09:48:56;;;;;;;12.20;7.28;;;17.00;99.90;;;;;;4972289;28;20108;-74
2023/05/06 09:51:21;;;;;;;12.15;7.57;;;17.00;99.90;;;;;;4955728;28;20073;-73
2023/05/06 09:53:47;;;;;;;10.10;7.05;;;17.10;99.90;;;;;;4952677;28;20129;-74
2023/05/06 09:56:15;;;;;;;9.82;6.35;;;17.10;99.90;;;;;;4982125;28;20038;-75
2023/05/06 09:58:41;;;;;;;7.40;5.85;;;17.20;99.90;;;;;;4997238;28;20046;-74
2023/05/06 10:01:08;;;;;;;6.47;5.22;;;17.30;99.90;;;;;;4976214;28;20516;-74
2023/05/06 10:03:34;;;;;;;11.00;6.43;;;17.30;99.90;;;;;;4981900;28;20052;-75
2023/05/06 10:06:02;;;;;;;7.60;5.22;;;17.40;99.90;;;;;;4979021;28;20152;-78
2023/05/06 10:08:28;;;;;;;5.78;4.68;;;17.40;99.90;;;;;;4992717;28;20046;-74
2023/05/06 10:10:54;;;;;;;7.38;5.25;;;17.40;99.90;;;;;;4971406;28;20046;-74
2023/05/06 10:13:23;;;;;;;6.78;5.05;;;17.50;99.90;;;;;;4969767;28;20050;-74
2023/05/06 10:15:50;;;;;;;12.23;5.78;;;17.50;99.90;;;;;;4971429;28;20046;-75
2023/05/06 10:18:18;;;;;;;9.57;5.05;;;17.50;99.90;;;;;;4973264;28;20046;-74
2023/05/06 10:20:45;;;;;;;6.15;4.70;;;17.70;99.90;;;;;;4971363;28;20053;-74
2023/05/06 10:23:37;;;;;;;13.52;4.88;;;17.90;99.90;;;;;;4975342;28;20062;-75
2023/05/06 10:26:09;;;;;;;5.13;4.63;;;17.90;99.90;;;;;;4984263;28;20060;-75
2023/05/06 10:28:42;;;;;;;4.43;4.03;;;18.00;99.90;;;;;;4973528;28;20131;-75
2023/05/06 10:31:12;;;;;;;7.07;5.60;;;17.90;98.30;;;;;;4972051;28;20054;-74
2023/05/06 10:33:46;;;;;;;7.88;4.75;;;17.80;99.90;;;;;;4966281;28;20034;-75
2023/05/06 10:36:22;;;;;;;7.28;4.40;;;18.00;99.90;;;;;;4960858;28;20058;-74
2023/05/06 10:38:55;;;;;;;6.57;4.95;;;18.10;99.90;;;;;;4961290;28;20117;-75
2023/05/06 10:41:22;;;;;;;5.47;4.88;;;18.30;99.90;;;;;;4971466;28;20053;-75
2023/05/06 10:43:55;;;;;;;10.15;5.00;;;18.30;99.90;;;;;;4977377;28;20042;-75
2023/05/06 10:46:22;;;;;;;10.82;6.05;;;18.30;99.90;;;;;;4964929;28;20510;-75
2023/05/06 10:49:03;;;;;;;5.00;4.50;;;18.30;99.90;;;;;;4977314;28;20530;-75
2023/05/06 10:51:30;;;;;;;6.05;4.72;;;18.40;99.90;;;;;;4988425;28;20050;-75
2023/05/06 10:54:05;;;;;;;9.20;4.80;;;18.40;99.90;;;;;;4982208;28;20053;-74
2023/05/06 10:56:43;;;;;;;5.32;4.82;;;18.40;99.90;;;;;;4992062;28;20050;-75
2023/05/06 10:59:11;;;;;;;5.32;4.05;;;18.50;99.90;;;;;;4978625;28;20054;-75
2023/05/06 11:01:41;;;;;;;6.07;4.60;;;18.60;99.90;;;;;;4978717;28;20034;-75
2023/05/06 11:04:12;;;;;;;7.32;4.30;;;18.50;99.90;;;;;;4981006;28;20089;-75
2023/05/06 11:06:49;;;;;;;7.38;4.80;;;18.60;99.90;;;;;;4978402;28;20046;-74
2023/05/06 11:09:26;;;;;;;5.70;5.13;;;18.80;99.90;;;;;;4961691;28;20041;-75
2023/05/06 11:11:57;;;;;;;8.07;4.78;;;18.90;99.90;;;;;;4971020;28;20046;-74
2023/05/06 11:14:30;;;;;;;5.78;4.88;;;18.90;99.90;;;;;;4984621;28;20116;-74
2023/05/06 11:16:58;;;;;;;7.70;5.20;;;18.70;99.90;;;;;;4979169;28;20101;-74
2023/05/06 11:19:31;;;;;;;6.70;5.40;;;18.60;99.90;;;;;;4975114;28;20048;-74
2023/05/06 11:21:59;;;;;;;7.55;5.20;;;18.40;99.90;;;;;;4984138;28;20133;-74
2023/05/06 11:24:30;;;;;;;5.85;5.03;;;18.20;99.90;;;;;;4982049;28;20434;-74
2023/05/06 11:27:00;;;;;;;6.85;5.30;;;18.20;99.90;;;;;;4985690;28;20086;-75
2023/05/06 11:29:26;;;;;;;6.82;5.53;;;18.20;99.90;;;;;;4980065;28;20460;-73
2023/05/06 11:31:53;;;;;;;5.03;4.63;;;18.10;99.90;;;;;;4997617;28;20050;-74
2023/05/06 11:34:23;;;;;;;6.82;5.13;;;18.00;99.90;;;;;;4978737;28;20050;-74
2023/05/06 11:37:04;;;;;;;4.47;4.18;;;18.00;99.90;;;;;;4955305;28;20042;-73
2023/05/06 11:39:32;;;;;;;4.63;4.22;;;18.00;99.90;;;;;;4976004;28;20055;-73
2023/05/06 11:42:04;;;;;;;4.93;4.13;;;17.90;99.90;;;;;;4984918;28;20195;-73
2023/05/06 11:44:33;;;;;;;4.28;3.88;;;17.80;99.90;;;;;;4980681;28;20046;-73
2023/05/06 11:47:01;;;;;;;6.25;4.50;;;17.70;99.90;;;;;;4976841;28;20050;-74
2023/05/06 11:49:27;;;;;;;4.95;4.43;;;17.70;99.90;;;;;;4975280;28;20101;-73
2023/05/06 11:51:55;;;;;;;4.80;4.00;;;17.70;99.90;;;;;;5001465;28;20049;-73
2023/05/06 11:54:22;;;;;;;4.40;4.00;;;17.60;99.90;;;;;;4982999;28;20045;-73
2023/05/06 11:56:53;;;;;;;4.68;3.88;;;17.60;99.90;;;;;;5001020;28;20109;-73
2023/05/06 11:59:38;;;;;;;5.72;3.65;;;17.70;99.90;;;;;;4961701;28;20547;-73
2023/05/06 12:02:09;;;;;;;5.15;3.78;;;17.80;99.90;;;;;;4967381;28;20088;-73
2023/05/06 12:04:43;;;;;;;4.32;3.92;;;17.90;99.90;;;;;;4981363;28;20545;-73
2023/05/06 12:07:13;;;;;;;4.50;4.13;;;17.90;99.90;;;;;;4955673;28;20108;-72
2023/05/06 12:09:45;;;;;;;6.68;4.55;;;17.90;99.90;;;;;;4974912;28;20038;-72
2023/05/06 12:12:16;;;;;;;5.30;4.85;;;18.00;99.90;;;;;;4970188;28;20054;-73
2023/05/06 12:14:42;;;;;;;7.43;5.13;;;18.10;99.90;;;;;;4989460;28;20039;-72
2023/05/06 12:17:08;;;;;;;5.05;4.38;;;18.00;99.90;;;;;;4987638;28;20046;-72
2023/05/06 12:19:34;;;;;;;4.72;4.35;;;17.80;99.90;;;;;;4988411;28;20050;-73
2023/05/06 12:22:20;;;;;;;5.32;4.82;;;17.50;99.90;;;;;;4970460;28;20509;-72
2023/05/06 12:24:47;;;;;;;6.18;4.60;;;17.40;99.90;;;;;;4970741;28;20117;-72
2023/05/06 12:27:13;;;;;;;7.03;5.57;;;17.30;99.90;;;;;;4989211;28;20050;-72
2023/05/06 12:29:38;;;;;;;4.68;4.35;;;17.30;99.90;;;;;;4987206;28;20038;-72
2023/05/06 12:32:09;;;;;;;6.47;4.25;;;17.40;99.90;;;;;;4970952;28;20481;-72
2023/05/06 12:34:37;;;;;;;7.35;4.97;;;17.60;99.90;;;;;;4969449;28;20054;-72
2023/05/06 12:37:03;;;;;;;7.00;5.13;;;17.70;99.90;;;;;;4988464;28;20113;-72
2023/05/06 12:39:37;;;;;;;5.00;4.60;;;17.60;99.90;;;;;;4954091;28;20053;-72